Dades meteomassalio
Diari Summary for Diciembre 1, 2017 Units:  Metric    English   Both
« Previous Day
Next Day »
Diari Semanal Mensual Anual Personalitzat
  Maxima: Minima: Mijana:
Temperatura: 8.9 °C 1.1 °C 4.5 °C
Rosada: 3.4 °C -5.1 °C -2 °C
Humitat: 86 % 50 % 63 %
Velocitat del vent: 55.5 km/h 7.4 km/h 31.8 km/h
Racha vent: 55.5 km/h - -
Vent:- - WNW
Pressio: 1021.6 hPa 1014.8 hPa -
Pluja: 0.5 mm    
Historical Graphs
 
 
Tabular Data for Diciembre 1, 2017
Time Temperature Dew Point Pressure Wind Wind Speed Wind Gust Humidity Rainfall Rate (Hourly) solar Conditions
00:01 3.9 °C -1.1 °C 1020.5 hPa WNW 11.1 km/h 11.1 km/h 70 % 0.0 mm 0.0 W/m2 CLR
00:06 3.9 °C -1.1 °C 1020.5 hPa NW 8.0 km/h 8.0 km/h 70 % 0.0 mm 0.0 W/m2 CLR
00:16 2.8 °C -1.9 °C 1020.2 hPa NW 7.4 km/h 7.4 km/h 71 % 0.0 mm 0.0 W/m2 CLR
00:26 1.7 °C -2.8 °C 1019.9 hPa NW 7.4 km/h 7.4 km/h 72 % 0.0 mm 0.0 W/m2 CLR
00:31 1.1 °C -3.2 °C 1019.9 hPa NW 13.0 km/h 13.0 km/h 73 % 0.0 mm 0.0 W/m2 CLR
00:36 1.1 °C -3.4 °C 1019.5 hPa NW 18.5 km/h 18.5 km/h 72 % 0.0 mm 0.0 W/m2 CLR
00:41 2.2 °C -2.7 °C 1019.5 hPa NW 20.4 km/h 20.4 km/h 70 % 0.0 mm 0.0 W/m2 CLR
00:46 2.2 °C -2.9 °C 1019.2 hPa NW 22.2 km/h 22.2 km/h 69 % 0.0 mm 0.0 W/m2 CLR
00:51 2.8 °C -2.6 °C 1019.2 hPa NW 22.2 km/h 22.2 km/h 68 % 0.0 mm 0.0 W/m2 CLR
00:56 3.3 °C -2.4 °C 1019.2 hPa NW 18.5 km/h 18.5 km/h 66 % 0.0 mm 0.0 W/m2 CLR
01:01 3.9 °C -2.3 °C 1019.2 hPa NW 18.5 km/h 18.5 km/h 64 % 0.0 mm 0.0 W/m2 CLR
01:11 4.4 °C -2.0 °C 1019.2 hPa NW 20.4 km/h 20.4 km/h 63 % 0.0 mm 0.0 W/m2 CLR
01:16 5.0 °C -1.7 °C 1018.8 hPa NW 17.7 km/h 17.7 km/h 62 % 0.0 mm 0.0 W/m2 CLR
01:21 5.0 °C -1.9 °C 1018.8 hPa NW 18.5 km/h 18.5 km/h 61 % 0.0 mm 0.0 W/m2 CLR
01:26 5.0 °C -1.9 °C 1018.8 hPa NNW 18.5 km/h 18.5 km/h 61 % 0.0 mm 0.0 W/m2 CLR
01:31 5.0 °C -2.1 °C 1018.8 hPa NW 29.0 km/h 29.0 km/h 60 % 0.0 mm 0.0 W/m2 CLR
01:36 5.6 °C -1.6 °C 1018.8 hPa NW 22.2 km/h 22.2 km/h 60 % 0.0 mm 0.0 W/m2 CLR
01:41 5.0 °C -2.1 °C 1018.8 hPa NW 20.4 km/h 20.4 km/h 60 % 0.0 mm 0.0 W/m2 CLR
01:46 5.0 °C -2.1 °C 1018.8 hPa NW 27.8 km/h 27.8 km/h 60 % 0.0 mm 0.0 W/m2 CLR
01:56 5.0 °C -2.3 °C 1018.8 hPa NW 27.8 km/h 27.8 km/h 59 % 0.0 mm 0.0 W/m2 CLR
02:06 5.0 °C -2.3 °C 1018.8 hPa NW 20.4 km/h 20.4 km/h 59 % 0.0 mm 0.0 W/m2 CLR
02:11 5.0 °C -2.3 °C 1018.8 hPa WNW 24.1 km/h 24.1 km/h 59 % 0.0 mm 0.0 W/m2 CLR
02:21 5.0 °C -2.1 °C 1018.8 hPa NNW 25.7 km/h 25.7 km/h 60 % 0.0 mm 0.0 W/m2 CLR
02:26 5.0 °C -2.1 °C 1018.8 hPa NW 27.8 km/h 27.8 km/h 60 % 0.0 mm 0.0 W/m2 CLR
02:31 5.0 °C -2.1 °C 1018.8 hPa NW 22.2 km/h 22.2 km/h 60 % 0.0 mm 0.0 W/m2 CLR
02:36 5.0 °C -2.1 °C 1018.8 hPa NW 22.2 km/h 22.2 km/h 60 % 0.0 mm 0.0 W/m2 CLR
02:41 5.0 °C -2.1 °C 1018.8 hPa NW 22.2 km/h 22.2 km/h 60 % 0.0 mm 0.0 W/m2 CLR
02:46 5.0 °C -2.1 °C 1018.8 hPa NW 16.7 km/h 16.7 km/h 60 % 0.0 mm 0.0 W/m2 CLR
02:51 5.0 °C -2.1 °C 1018.8 hPa NW 16.1 km/h 16.1 km/h 60 % 0.0 mm 0.0 W/m2 CLR
02:56 4.4 °C -2.4 °C 1018.8 hPa WNW 22.5 km/h 22.5 km/h 61 % 0.0 mm 0.0 W/m2 CLR
03:01 4.4 °C -2.4 °C 1018.8 hPa NW 18.5 km/h 18.5 km/h 61 % 0.0 mm 0.0 W/m2 CLR
03:06 4.4 °C -2.4 °C 1018.8 hPa WNW 18.5 km/h 18.5 km/h 61 % 0.0 mm 0.0 W/m2 CLR
03:11 3.9 °C -2.9 °C 1018.8 hPa WNW 18.5 km/h 18.5 km/h 61 % 0.0 mm 0.0 W/m2 CLR
03:16 4.4 °C -2.7 °C 1018.5 hPa NW 24.1 km/h 24.1 km/h 60 % 0.0 mm 0.0 W/m2 CLR
03:21 4.4 °C -2.7 °C 1018.5 hPa NW 22.2 km/h 22.2 km/h 60 % 0.0 mm 0.0 W/m2 CLR
03:31 5.0 °C -2.1 °C 1018.5 hPa NW 24.1 km/h 24.1 km/h 60 % 0.0 mm 0.0 W/m2 CLR
03:41 5.0 °C -2.1 °C 1018.5 hPa WNW 24.1 km/h 24.1 km/h 60 % 0.0 mm 0.0 W/m2 CLR
03:47 5.0 °C -2.1 °C 1018.5 hPa WNW 25.9 km/h 25.9 km/h 60 % 0.0 mm 0.0 W/m2 CLR
03:52 5.0 °C -2.1 °C 1018.5 hPa NW 25.9 km/h 25.9 km/h 60 % 0.0 mm 0.0 W/m2 CLR
03:57 4.4 °C -2.7 °C 1018.2 hPa WNW 27.8 km/h 27.8 km/h 60 % 0.0 mm 0.0 W/m2 CLR
04:02 5.0 °C -2.1 °C 1018.2 hPa NW 22.2 km/h 22.2 km/h 60 % 0.0 mm 0.0 W/m2 CLR
04:07 5.0 °C -2.1 °C 1018.2 hPa WNW 24.1 km/h 24.1 km/h 60 % 0.0 mm 0.0 W/m2 CLR
04:12 5.0 °C -2.1 °C 1018.2 hPa WNW 22.2 km/h 22.2 km/h 60 % 0.0 mm 0.0 W/m2 CLR
04:19 5.0 °C -2.3 °C 1018.2 hPa WNW 18.5 km/h 18.5 km/h 59 % 0.0 mm 0.0 W/m2 CLR
04:22 5.0 °C -2.1 °C 1017.8 hPa NW 16.7 km/h 16.7 km/h 60 % 0.0 mm 0.0 W/m2 CLR
04:24 4.4 °C -2.7 °C 1017.8 hPa West 18.5 km/h 18.5 km/h 60 % 0.0 mm 0.0 W/m2 CLR
04:25 4.4 °C -2.7 °C 1017.8 hPa WNW 18.5 km/h 18.5 km/h 60 % 0.0 mm 0.0 W/m2 CLR
04:32 4.4 °C -2.7 °C 1017.8 hPa WNW 14.8 km/h 14.8 km/h 60 % 0.0 mm 0.0 W/m2 CLR
04:35 4.4 °C -2.7 °C 1017.8 hPa WNW 16.7 km/h 16.7 km/h 60 % 0.0 mm 0.0 W/m2 CLR
04:40 3.9 °C -3.2 °C 1017.8 hPa NW 22.2 km/h 22.2 km/h 60 % 0.0 mm 0.0 W/m2 CLR
04:45 3.9 °C -3.2 °C 1017.5 hPa WNW 25.9 km/h 25.9 km/h 60 % 0.0 mm 0.0 W/m2 CLR
04:50 3.9 °C -3.2 °C 1017.5 hPa WNW 18.5 km/h 18.5 km/h 60 % 0.0 mm 0.0 W/m2 CLR
04:55 3.9 °C -2.9 °C 1017.5 hPa WNW 13.0 km/h 13.0 km/h 61 % 0.0 mm 0.0 W/m2 CLR
05:05 3.3 °C -3.1 °C 1017.5 hPa NW 14.8 km/h 14.8 km/h 63 % 0.0 mm 0.0 W/m2 CLR
05:15 3.3 °C -3.5 °C 1017.2 hPa NW 19.3 km/h 19.3 km/h 61 % 0.0 mm 0.0 W/m2 CLR
05:20 3.9 °C -3.2 °C 1017.2 hPa NW 20.9 km/h 20.9 km/h 60 % 0.0 mm 0.0 W/m2 CLR
05:25 4.4 °C -2.7 °C 1017.2 hPa NW 31.5 km/h 31.5 km/h 60 % 0.0 mm 0.0 W/m2 CLR
05:30 4.4 °C -2.9 °C 1017.2 hPa WNW 22.2 km/h 22.2 km/h 59 % 0.0 mm 0.0 W/m2 CLR
05:35 5.0 °C -2.3 °C 1016.8 hPa NW 20.4 km/h 20.4 km/h 59 % 0.0 mm 0.0 W/m2 CLR
05:36 5.0 °C -2.3 °C 1017.2 hPa NW 27.4 km/h 27.4 km/h 59 % 0.0 mm 0.0 W/m2 CLR
05:41 5.0 °C -2.6 °C 1016.8 hPa NW 31.5 km/h 31.5 km/h 58 % 0.0 mm 0.0 W/m2 CLR
05:46 5.6 °C -2.1 °C 1016.8 hPa NW 24.1 km/h 24.1 km/h 58 % 0.0 mm 0.0 W/m2 CLR
05:56 5.6 °C -2.3 °C 1016.8 hPa WNW 22.2 km/h 22.2 km/h 57 % 0.0 mm 0.0 W/m2 CLR
06:01 5.6 °C -2.3 °C 1017.2 hPa WNW 24.1 km/h 24.1 km/h 57 % 0.0 mm 0.0 W/m2 CLR
06:06 5.6 °C -2.3 °C 1016.8 hPa WNW 24.1 km/h 24.1 km/h 57 % 0.0 mm 0.0 W/m2 CLR
06:11 5.6 °C -2.1 °C 1016.8 hPa NW 20.4 km/h 20.4 km/h 58 % 0.0 mm 0.0 W/m2 CLR
06:21 5.0 °C -2.6 °C 1016.8 hPa WNW 18.5 km/h 18.5 km/h 58 % 0.0 mm 0.0 W/m2 CLR
06:26 4.4 °C -3.1 °C 1016.8 hPa WNW 13.0 km/h 13.0 km/h 58 % 0.0 mm 0.0 W/m2 CLR
06:31 4.4 °C -3.1 °C 1016.8 hPa WNW 14.8 km/h 14.8 km/h 58 % 0.0 mm 0.0 W/m2 CLR
06:36 4.4 °C -2.9 °C 1016.8 hPa West 20.4 km/h 20.4 km/h 59 % 0.0 mm 0.0 W/m2 CLR
06:41 4.4 °C -2.9 °C 1016.8 hPa WNW 18.5 km/h 18.5 km/h 59 % 0.0 mm 0.0 W/m2 CLR
06:51 3.9 °C -3.2 °C 1016.5 hPa WNW 14.5 km/h 14.5 km/h 60 % 0.0 mm 0.0 W/m2 CLR
06:56 3.9 °C -3.2 °C 1016.5 hPa WNW 14.8 km/h 14.8 km/h 60 % 0.0 mm 0.0 W/m2 CLR
07:01 3.9 °C -3.2 °C 1016.5 hPa NW 18.5 km/h 18.5 km/h 60 % 0.0 mm 0.0 W/m2 CLR
07:06 4.4 °C -2.9 °C 1016.1 hPa WNW 24.1 km/h 24.1 km/h 59 % 0.0 mm 0.0 W/m2 CLR
07:11 4.4 °C -2.9 °C 1016.5 hPa NW 22.2 km/h 22.2 km/h 59 % 0.0 mm 0.0 W/m2 CLR
07:16 5.0 °C -2.3 °C 1016.1 hPa WNW 22.2 km/h 22.2 km/h 59 % 0.0 mm 0.0 W/m2 CLR
07:21 5.0 °C -2.3 °C 1016.1 hPa NW 25.9 km/h 25.9 km/h 59 % 0.0 mm 0.0 W/m2 CLR
07:26 5.0 °C -2.1 °C 1016.1 hPa NW 20.4 km/h 20.4 km/h 60 % 0.0 mm 0.0 W/m2 CLR
07:36 5.0 °C -2.1 °C 1015.8 hPa NW 16.7 km/h 16.7 km/h 60 % 0.0 mm 0.0 W/m2 CLR
07:41 5.0 °C -2.1 °C 1015.8 hPa NW 18.5 km/h 18.5 km/h 60 % 0.0 mm 0.0 W/m2 CLR
07:46 5.0 °C -2.1 °C 1015.8 hPa WNW 13.0 km/h 13.0 km/h 60 % 0.0 mm 0.0 W/m2 CLR
07:51 4.4 °C -2.7 °C 1015.8 hPa NW 16.7 km/h 16.7 km/h 60 % 0.0 mm 0.0 W/m2 CLR
07:56 4.4 °C -2.4 °C 1015.8 hPa North 16.7 km/h 16.7 km/h 61 % 0.0 mm 0.0 W/m2 CLR
08:01 4.4 °C -2.4 °C 1015.8 hPa WNW 20.9 km/h 20.9 km/h 61 % 0.0 mm 0.0 W/m2 OVC
08:06 4.4 °C -2.7 °C 1015.8 hPa NW 18.5 km/h 18.5 km/h 60 % 0.0 mm 7.0 W/m2 OVC
08:11 5.0 °C -2.1 °C 1015.8 hPa NW 20.9 km/h 20.9 km/h 60 % 0.0 mm 9.0 W/m2 BKN
08:16 5.6 °C -1.6 °C 1015.8 hPa NW 24.1 km/h 24.1 km/h 60 % 0.0 mm 12.0 W/m2 BKN
08:21 5.6 °C -1.8 °C 1015.5 hPa WNW 20.4 km/h 20.4 km/h 59 % 0.0 mm 12.0 W/m2 BKN
08:26 5.6 °C -1.6 °C 1015.5 hPa WNW 20.9 km/h 20.9 km/h 60 % 0.0 mm 12.0 W/m2 BKN
08:31 5.6 °C -1.6 °C 1015.5 hPa NW 20.4 km/h 20.4 km/h 60 % 0.0 mm 14.0 W/m2 BKN
08:36 5.6 °C -1.6 °C 1015.5 hPa NW 22.5 km/h 22.5 km/h 60 % 0.0 mm 21.0 W/m2 BKN
08:41 5.6 °C -1.6 °C 1015.5 hPa NW 22.5 km/h 22.5 km/h 60 % 0.0 mm 30.0 W/m2 BKN
08:46 5.6 °C -1.6 °C 1015.5 hPa WNW 24.1 km/h 24.1 km/h 60 % 0.0 mm 35.0 W/m2 BKN
08:51 5.6 °C -1.6 °C 1015.5 hPa NW 22.2 km/h 22.2 km/h 60 % 0.0 mm 51.0 W/m2 SCT
08:56 5.6 °C -1.8 °C 1015.1 hPa WNW 29.6 km/h 29.6 km/h 59 % 0.0 mm 65.0 W/m2 SCT
09:01 5.6 °C -1.8 °C 1015.1 hPa NW 33.3 km/h 33.3 km/h 59 % 0.0 mm 70.0 W/m2 FEW
09:11 6.1 °C -1.6 °C 1015.1 hPa WNW 22.2 km/h 22.2 km/h 58 % 0.0 mm 134.0 W/m2 FEW
09:16 6.7 °C -1.0 °C 1015.1 hPa NW 27.8 km/h 27.8 km/h 58 % 0.0 mm 70.0 W/m2 CLR
09:21 6.7 °C -1.3 °C 1014.8 hPa WNW 30.6 km/h 30.6 km/h 57 % 0.0 mm 54.0 W/m2 FEW
09:23 6.7 °C -1.3 °C 1014.8 hPa NNW 29.6 km/h 29.6 km/h 57 % 0.0 mm 54.0 W/m2 FEW
09:28 6.7 °C -1.0 °C 1014.8 hPa WNW 33.3 km/h 33.3 km/h 58 % 0.0 mm 35.0 W/m2 SCT
09:33 6.7 °C -1.0 °C 1014.8 hPa NW 40.7 km/h 40.7 km/h 58 % 0.0 mm 47.0 W/m2 BKN
09:38 6.7 °C -1.3 °C 1014.8 hPa WNW 33.8 km/h 33.8 km/h 57 % 0.0 mm 62.0 W/m2 SCT
09:43 6.7 °C -1.3 °C 1014.8 hPa NNW 30.6 km/h 30.6 km/h 57 % 0.0 mm 158.0 W/m2 FEW
09:48 7.2 °C -1.0 °C 1014.8 hPa NW 33.3 km/h 33.3 km/h 56 % 0.0 mm 98.0 W/m2 CLR
09:53 7.2 °C -1.2 °C 1014.8 hPa NW 29.6 km/h 29.6 km/h 55 % 0.0 mm 63.0 W/m2 CLR
09:58 7.2 °C -1.2 °C 1014.8 hPa WNW 33.3 km/h 33.3 km/h 55 % 0.0 mm 91.0 W/m2 FEW
10:03 7.8 °C -0.7 °C 1014.8 hPa NW 35.2 km/h 35.2 km/h 55 % 0.0 mm 272.0 W/m2 CLR
10:13 8.3 °C -0.4 °C 1015.1 hPa WNW 31.5 km/h 31.5 km/h 54 % 0.0 mm 183.0 W/m2 CLR
10:18 8.9 °C -0.2 °C 1015.1 hPa WNW 31.5 km/h 31.5 km/h 53 % 0.0 mm 258.0 W/m2 CLR
10:23 8.9 °C 0.1 °C 1015.5 hPa NNW 33.3 km/h 33.3 km/h 54 % 0.0 mm 462.0 W/m2 CLR
10:28 8.9 °C -0.2 °C 1015.5 hPa NNW 31.5 km/h 31.5 km/h 53 % 0.0 mm 160.0 W/m2 CLR
10:33 8.9 °C 0.1 °C 1015.5 hPa North 32.2 km/h 32.2 km/h 54 % 0.0 mm 111.0 W/m2 CLR
10:38 8.3 °C -0.2 °C 1015.5 hPa NW 27.8 km/h 27.8 km/h 55 % 0.0 mm 93.0 W/m2 CLR
10:43 8.3 °C 0.1 °C 1015.5 hPa NNW 25.9 km/h 25.9 km/h 56 % 0.0 mm 95.0 W/m2 CLR
10:58 8.3 °C -0.2 °C 1015.5 hPa NW 31.5 km/h 31.5 km/h 55 % 0.0 mm 132.0 W/m2 CLR
11:03 8.3 °C 0.1 °C 1015.5 hPa North 33.3 km/h 33.3 km/h 56 % 0.0 mm 125.0 W/m2 CLR
11:08 8.3 °C 0.3 °C 1015.8 hPa NNW 40.7 km/h 40.7 km/h 57 % 0.0 mm 84.0 W/m2 CLR
11:13 7.8 °C 0.7 °C 1015.8 hPa NNW 55.5 km/h 55.5 km/h 61 % 0.0 mm 107.0 W/m2 CLR
11:18 7.2 °C 0.8 °C 1015.8 hPa North 46.3 km/h 46.3 km/h 64 % 0.0 mm 81.0 W/m2 CLR
11:20 7.2 °C 1.1 °C 1015.8 hPa North 46.3 km/h 46.3 km/h 65 % 0.0 mm 74.0 W/m2 CLR
11:25 6.7 °C 1.6 °C 1015.8 hPa North 40.2 km/h 40.2 km/h 70 % 0.0 mm 63.0 W/m2 FEW
11:30 6.1 °C 2.0 °C 1015.8 hPa North 53.7 km/h 53.7 km/h 75 % 0.0 mm 88.0 W/m2 FEW
11:35 5.6 °C 2.2 °C 1016.1 hPa North 35.2 km/h 35.2 km/h 79 % 0.0 mm 81.0 W/m2 FEW
11:40 5.6 °C 2.6 °C 1016.1 hPa North 35.2 km/h 35.2 km/h 81 % 0.3 mm 111.0 W/m2 RA
11:45 5.0 °C 2.3 °C 1015.8 hPa NW 37.0 km/h 37.0 km/h 83 % 0.3 mm 91.0 W/m2 CLR
11:50 5.0 °C 2.5 °C 1015.8 hPa NNW 55.5 km/h 55.5 km/h 84 % 0.3 mm 156.0 W/m2 CLR
11:55 5.0 °C 2.7 °C 1015.8 hPa North 38.6 km/h 38.6 km/h 85 % 0.3 mm 241.0 W/m2 CLR
12:00 5.0 °C 2.8 °C 1015.5 hPa NNW 38.9 km/h 38.9 km/h 86 % 0.3 mm 311.0 W/m2 CLR
12:05 5.6 °C 3.4 °C 1015.5 hPa NW 38.9 km/h 38.9 km/h 86 % 0.3 mm 250.0 W/m2 CLR
12:10 5.6 °C 3.2 °C 1015.8 hPa NW 31.5 km/h 31.5 km/h 85 % 0.3 mm 84.0 W/m2 CLR
12:15 5.0 °C 2.5 °C 1015.8 hPa NNW 37.0 km/h 37.0 km/h 84 % 0.3 mm 49.0 W/m2 FEW
12:20 5.0 °C 2.5 °C 1016.1 hPa North 46.3 km/h 46.3 km/h 84 % 0.3 mm 67.0 W/m2 SCT
12:25 5.0 °C 2.3 °C 1016.1 hPa NNW 50.0 km/h 50.0 km/h 83 % 0.3 mm 125.0 W/m2 FEW
12:30 5.0 °C 2.3 °C 1016.1 hPa North 41.8 km/h 41.8 km/h 83 % 0.3 mm 97.0 W/m2 CLR
12:35 4.4 °C 1.6 °C 1016.1 hPa NNW 42.6 km/h 42.6 km/h 82 % 0.3 mm 98.0 W/m2 CLR
12:40 4.4 °C 1.4 °C 1016.5 hPa NNW 46.3 km/h 46.3 km/h 81 % 0.0 mm 128.0 W/m2 CLR
12:45 5.0 °C 2.0 °C 1016.5 hPa NNW 35.4 km/h 35.4 km/h 81 % 0.0 mm 76.0 W/m2 CLR
12:50 5.0 °C 1.8 °C 1016.5 hPa NNW 38.9 km/h 38.9 km/h 80 % 0.0 mm 120.0 W/m2 CLR
12:55 5.0 °C 2.0 °C 1016.1 hPa NNW 37.0 km/h 37.0 km/h 81 % 0.0 mm 174.0 W/m2 CLR
13:01 5.0 °C 1.8 °C 1016.1 hPa North 31.5 km/h 31.5 km/h 80 % 0.0 mm 229.0 W/m2 CLR
13:06 5.6 °C 2.0 °C 1016.1 hPa NNW 37.0 km/h 37.0 km/h 78 % 0.0 mm 278.0 W/m2 CLR
13:16 5.6 °C 1.3 °C 1015.8 hPa NW 29.6 km/h 29.6 km/h 74 % 0.0 mm 229.0 W/m2 CLR
13:21 6.1 °C 1.6 °C 1015.8 hPa NNW 27.8 km/h 27.8 km/h 73 % 0.0 mm 299.0 W/m2 CLR
13:26 6.1 °C 1.4 °C 1015.8 hPa NW 27.8 km/h 27.8 km/h 72 % 0.0 mm 364.0 W/m2 CLR
13:31 6.1 °C 0.8 °C 1015.8 hPa North 49.9 km/h 49.9 km/h 69 % 0.0 mm 213.0 W/m2 CLR
13:36 5.6 °C 0.3 °C 1015.8 hPa NNW 31.5 km/h 31.5 km/h 69 % 0.0 mm 204.0 W/m2 CLR
13:41 5.6 °C 0.1 °C 1015.8 hPa NNW 35.2 km/h 35.2 km/h 68 % 0.0 mm 244.0 W/m2 CLR
13:46 5.6 °C -0.1 °C 1015.8 hPa NW 46.3 km/h 46.3 km/h 67 % 0.0 mm 197.0 W/m2 CLR
13:51 5.6 °C 0.1 °C 1015.8 hPa NW 38.9 km/h 38.9 km/h 68 % 0.0 mm 181.0 W/m2 CLR
13:56 5.0 °C -0.2 °C 1015.8 hPa NW 27.8 km/h 27.8 km/h 69 % 0.0 mm 174.0 W/m2 CLR
14:01 5.0 °C -0.2 °C 1016.1 hPa North 44.4 km/h 44.4 km/h 69 % 0.0 mm 209.0 W/m2 CLR
14:06 5.0 °C 0.0 °C 1016.1 hPa North 35.2 km/h 35.2 km/h 70 % 0.0 mm 151.0 W/m2 CLR
14:11 5.0 °C -0.2 °C 1016.1 hPa North 35.2 km/h 35.2 km/h 69 % 0.0 mm 162.0 W/m2 CLR
14:16 5.0 °C -0.4 °C 1016.1 hPa North 53.1 km/h 53.1 km/h 68 % 0.0 mm 156.0 W/m2 CLR
14:21 5.0 °C -0.4 °C 1016.1 hPa NW 50.0 km/h 50.0 km/h 68 % 0.0 mm 163.0 W/m2 CLR
14:26 5.0 °C -0.6 °C 1015.8 hPa NW 40.7 km/h 40.7 km/h 67 % 0.0 mm 160.0 W/m2 CLR
14:31 5.0 °C -0.6 °C 1015.8 hPa NNW 42.6 km/h 42.6 km/h 67 % 0.0 mm 98.0 W/m2 CLR
14:41 5.0 °C -1.3 °C 1015.8 hPa NW 40.7 km/h 40.7 km/h 64 % 0.0 mm 369.0 W/m2 CLR
14:46 5.6 °C -1.2 °C 1016.1 hPa NNW 40.7 km/h 40.7 km/h 62 % 0.0 mm 371.0 W/m2 CLR
14:51 5.6 °C -1.4 °C 1016.1 hPa NW 33.3 km/h 33.3 km/h 61 % 0.0 mm 387.0 W/m2 CLR
15:01 6.1 °C -1.6 °C 1016.1 hPa NNW 33.3 km/h 33.3 km/h 58 % 0.0 mm 359.0 W/m2 CLR
15:06 6.1 °C -2.0 °C 1016.1 hPa NNW 41.8 km/h 41.8 km/h 56 % 0.0 mm 318.0 W/m2 CLR
15:16 6.1 °C -2.5 °C 1015.8 hPa North 45.1 km/h 45.1 km/h 54 % 0.0 mm 295.0 W/m2 CLR
15:21 6.1 °C -2.8 °C 1016.1 hPa NNW 55.5 km/h 55.5 km/h 53 % 0.0 mm 281.0 W/m2 CLR
15:31 6.1 °C -3.3 °C 1016.5 hPa NNW 53.7 km/h 53.7 km/h 51 % 0.3 mm 258.0 W/m2 RA
15:36 6.1 °C -3.0 °C 1016.1 hPa North 55.5 km/h 55.5 km/h 52 % 0.3 mm 243.0 W/m2 CLR
15:41 6.1 °C -2.8 °C 1016.1 hPa NNW 42.6 km/h 42.6 km/h 53 % 0.3 mm 234.0 W/m2 CLR
15:46 6.1 °C -2.8 °C 1016.5 hPa North 50.0 km/h 50.0 km/h 53 % 0.3 mm 218.0 W/m2 CLR
15:51 5.6 °C -3.1 °C 1016.5 hPa North 50.0 km/h 50.0 km/h 54 % 0.3 mm 207.0 W/m2 CLR
16:01 5.6 °C -3.1 °C 1016.5 hPa NNW 55.5 km/h 55.5 km/h 54 % 0.3 mm 178.0 W/m2 CLR
16:06 5.6 °C -3.1 °C 1016.5 hPa NW 50.0 km/h 50.0 km/h 54 % 0.3 mm 163.0 W/m2 CLR
16:21 5.6 °C -3.1 °C 1016.8 hPa NW 35.2 km/h 35.2 km/h 54 % 0.3 mm 121.0 W/m2 CLR
16:31 5.0 °C -3.8 °C 1016.8 hPa North 42.6 km/h 42.6 km/h 53 % 0.0 mm 90.0 W/m2 CLR
16:36 5.0 °C -3.8 °C 1016.8 hPa NNW 40.2 km/h 40.2 km/h 53 % 0.0 mm 77.0 W/m2 FEW
16:41 5.0 °C -3.8 °C 1016.8 hPa NNW 42.6 km/h 42.6 km/h 53 % 0.0 mm 62.0 W/m2 BKN
16:51 5.0 °C -4.3 °C 1017.2 hPa North 42.6 km/h 42.6 km/h 51 % 0.0 mm 46.0 W/m2 SCT
16:56 5.0 °C -4.6 °C 1017.2 hPa North 48.3 km/h 48.3 km/h 50 % 0.0 mm 35.0 W/m2 BKN
17:01 5.0 °C -4.6 °C 1017.2 hPa North 49.9 km/h 49.9 km/h 50 % 0.0 mm 25.0 W/m2 BKN
17:06 4.4 °C -5.1 °C 1017.2 hPa North 38.9 km/h 38.9 km/h 50 % 0.0 mm 16.0 W/m2 BKN
17:11 4.4 °C -4.8 °C 1017.2 hPa North 40.7 km/h 40.7 km/h 51 % 0.0 mm 12.0 W/m2 BKN
17:16 4.4 °C -4.6 °C 1017.5 hPa NNW 33.8 km/h 33.8 km/h 52 % 0.0 mm 12.0 W/m2 BKN
17:21 4.4 °C -4.3 °C 1017.2 hPa NNW 45.1 km/h 45.1 km/h 53 % 0.0 mm 9.0 W/m2 BKN
17:31 4.4 °C -4.1 °C 1017.5 hPa North 38.9 km/h 38.9 km/h 54 % 0.0 mm 5.0 W/m2 OVC
17:36 3.9 °C -4.6 °C 1017.5 hPa NNW 46.3 km/h 46.3 km/h 54 % 0.0 mm 0.0 W/m2 OVC
17:46 3.9 °C -4.6 °C 1017.5 hPa NNW 38.6 km/h 38.6 km/h 54 % 0.0 mm 0.0 W/m2 CLR
17:51 3.9 °C -4.3 °C 1017.8 hPa North 40.7 km/h 40.7 km/h 55 % 0.0 mm 0.0 W/m2 CLR
17:56 3.9 °C -4.3 °C 1017.8 hPa North 40.7 km/h 40.7 km/h 55 % 0.0 mm 0.0 W/m2 CLR
18:01 3.9 °C -4.1 °C 1017.8 hPa North 48.1 km/h 48.1 km/h 56 % 0.0 mm 0.0 W/m2 CLR
18:11 3.3 °C -4.4 °C 1018.2 hPa North 53.7 km/h 53.7 km/h 57 % 0.0 mm 0.0 W/m2 CLR
18:17 3.3 °C -4.4 °C 1018.2 hPa North 44.4 km/h 44.4 km/h 57 % 0.0 mm 0.0 W/m2 CLR
18:22 3.3 °C -4.4 °C 1018.5 hPa NNW 50.0 km/h 50.0 km/h 57 % 0.0 mm 0.0 W/m2 CLR
18:27 3.3 °C -4.2 °C 1018.5 hPa NNW 46.3 km/h 46.3 km/h 58 % 0.0 mm 0.0 W/m2 CLR
18:32 3.3 °C -4.2 °C 1018.8 hPa North 42.6 km/h 42.6 km/h 58 % 0.0 mm 0.0 W/m2 CLR
18:37 3.3 °C -3.9 °C 1018.8 hPa NNW 51.8 km/h 51.8 km/h 59 % 0.0 mm 0.0 W/m2 CLR
18:42 3.3 °C -3.9 °C 1019.2 hPa NNW 42.6 km/h 42.6 km/h 59 % 0.0 mm 0.0 W/m2 CLR
18:47 2.8 °C -4.2 °C 1019.2 hPa North 55.5 km/h 55.5 km/h 60 % 0.0 mm 0.0 W/m2 CLR
18:52 2.8 °C -4.2 °C 1019.2 hPa North 42.6 km/h 42.6 km/h 60 % 0.0 mm 0.0 W/m2 CLR
18:57 2.8 °C -4.0 °C 1019.5 hPa NNW 42.6 km/h 42.6 km/h 61 % 0.0 mm 0.0 W/m2 CLR
19:02 2.8 °C -3.8 °C 1019.5 hPa NNW 35.4 km/h 35.4 km/h 62 % 0.0 mm 0.0 W/m2 CLR
19:07 2.8 °C -3.8 °C 1019.5 hPa NNW 40.7 km/h 40.7 km/h 62 % 0.0 mm 0.0 W/m2 CLR
19:12 2.8 °C -3.8 °C 1019.5 hPa NNW 44.4 km/h 44.4 km/h 62 % 0.0 mm 0.0 W/m2 CLR
19:17 2.8 °C -3.6 °C 1019.9 hPa North 42.6 km/h 42.6 km/h 63 % 0.0 mm 0.0 W/m2 CLR
19:22 2.8 °C -3.6 °C 1019.9 hPa NNW 40.7 km/h 40.7 km/h 63 % 0.0 mm 0.0 W/m2 CLR
19:27 2.2 °C -4.1 °C 1019.9 hPa NNW 27.8 km/h 27.8 km/h 63 % 0.0 mm 0.0 W/m2 CLR
19:32 2.2 °C -3.9 °C 1020.2 hPa North 29.0 km/h 29.0 km/h 64 % 0.0 mm 0.0 W/m2 CLR
19:37 2.2 °C -3.9 °C 1020.2 hPa North 31.5 km/h 31.5 km/h 64 % 0.0 mm 0.0 W/m2 CLR
19:48 2.2 °C -3.7 °C 1020.5 hPa NNW 37.0 km/h 37.0 km/h 65 % 0.0 mm 0.0 W/m2 CLR
19:53 2.2 °C -3.7 °C 1020.5 hPa NNE 33.3 km/h 33.3 km/h 65 % 0.0 mm 0.0 W/m2 CLR
19:58 2.2 °C -3.5 °C 1020.5 hPa NNW 33.3 km/h 33.3 km/h 66 % 0.0 mm 0.0 W/m2 CLR
20:13 2.2 °C -2.9 °C 1020.9 hPa NNW 33.3 km/h 33.3 km/h 69 % 0.0 mm 0.0 W/m2 CLR
20:18 2.2 °C -2.9 °C 1020.9 hPa North 31.5 km/h 31.5 km/h 69 % 0.0 mm 0.0 W/m2 CLR
20:23 2.2 °C -2.7 °C 1020.9 hPa NNW 40.7 km/h 40.7 km/h 70 % 0.0 mm 0.0 W/m2 CLR
20:28 1.7 °C -3.2 °C 1020.9 hPa NNW 32.2 km/h 32.2 km/h 70 % 0.0 mm 0.0 W/m2 CLR
20:38 1.7 °C -3.1 °C 1021.2 hPa North 38.9 km/h 38.9 km/h 71 % 0.0 mm 0.0 W/m2 CLR
20:43 1.7 °C -3.1 °C 1020.9 hPa North 38.9 km/h 38.9 km/h 71 % 0.0 mm 0.0 W/m2 CLR
20:48 1.7 °C -3.1 °C 1021.2 hPa NNW 44.4 km/h 44.4 km/h 71 % 0.0 mm 0.0 W/m2 CLR
20:54 1.7 °C -3.1 °C 1020.9 hPa NNW 46.3 km/h 46.3 km/h 71 % 0.0 mm 0.0 W/m2 CLR
20:59 1.7 °C -3.2 °C 1020.9 hPa NNW 37.0 km/h 37.0 km/h 70 % 0.0 mm 0.0 W/m2 CLR
21:04 2.2 °C -2.7 °C 1021.2 hPa NNW 42.6 km/h 42.6 km/h 70 % 0.0 mm 0.0 W/m2 CLR
21:09 2.2 °C -2.7 °C 1021.2 hPa North 35.2 km/h 35.2 km/h 70 % 0.0 mm 0.0 W/m2 CLR
21:19 2.2 °C -2.9 °C 1021.2 hPa North 35.2 km/h 35.2 km/h 69 % 0.0 mm 0.0 W/m2 CLR
21:24 2.2 °C -2.9 °C 1021.2 hPa North 42.6 km/h 42.6 km/h 69 % 0.0 mm 0.0 W/m2 CLR
21:29 1.7 °C -3.4 °C 1021.2 hPa North 42.6 km/h 42.6 km/h 69 % 0.0 mm 0.0 W/m2 CLR
21:34 2.2 °C -2.9 °C 1021.6 hPa North 35.4 km/h 35.4 km/h 69 % 0.0 mm 0.0 W/m2 CLR
21:39 2.2 °C -2.7 °C 1021.6 hPa North 38.9 km/h 38.9 km/h 70 % 0.0 mm 0.0 W/m2 CLR
21:49 2.2 °C -2.7 °C 1021.6 hPa North 31.5 km/h 31.5 km/h 70 % 0.0 mm 0.0 W/m2 CLR
21:54 2.2 °C -2.7 °C 1021.6 hPa North 35.2 km/h 35.2 km/h 70 % 0.0 mm 0.0 W/m2 CLR
21:59 1.7 °C -3.2 °C 1021.6 hPa NNW 27.8 km/h 27.8 km/h 70 % 0.0 mm 0.0 W/m2 CLR
22:04 1.7 °C -3.2 °C 1021.6 hPa NNW 27.4 km/h 27.4 km/h 70 % 0.0 mm 0.0 W/m2 CLR
22:09 1.7 °C -3.2 °C 1021.6 hPa NNW 38.6 km/h 38.6 km/h 70 % 0.0 mm 0.0 W/m2 CLR
22:14 1.7 °C -3.2 °C 1021.6 hPa NNW 38.9 km/h 38.9 km/h 70 % 0.0 mm 0.0 W/m2 CLR
22:19 1.7 °C -3.2 °C 1021.6 hPa NNW 42.6 km/h 42.6 km/h 70 % 0.0 mm 0.0 W/m2 CLR
22:24 1.7 °C -3.2 °C 1021.6 hPa NNW 35.4 km/h 35.4 km/h 70 % 0.0 mm 0.0 W/m2 CLR
22:29 2.2 °C -2.5 °C 1021.6 hPa NNW 38.9 km/h 38.9 km/h 71 % 0.0 mm 0.0 W/m2 CLR
22:34 1.7 °C -3.1 °C 1021.6 hPa NNW 29.6 km/h 29.6 km/h 71 % 0.0 mm 0.0 W/m2 CLR
22:39 1.7 °C -3.1 °C 1021.6 hPa NNW 29.6 km/h 29.6 km/h 71 % 0.0 mm 0.0 W/m2 CLR
22:44 1.7 °C -3.1 °C 1021.6 hPa NNW 31.5 km/h 31.5 km/h 71 % 0.0 mm 0.0 W/m2 CLR
22:49 1.7 °C -3.1 °C 1021.6 hPa NW 33.3 km/h 33.3 km/h 71 % 0.0 mm 0.0 W/m2 CLR
23:01 1.7 °C -2.8 °C 1021.6 hPa NNE 29.6 km/h 29.6 km/h 72 % 0.0 mm 0.0 W/m2 CLR
23:06 1.7 °C -2.8 °C 1021.6 hPa North 37.0 km/h 37.0 km/h 72 % 0.0 mm 0.0 W/m2 CLR
23:11 1.7 °C -2.8 °C 1021.6 hPa NNW 31.5 km/h 31.5 km/h 72 % 0.0 mm 0.0 W/m2 CLR
23:16 1.7 °C -2.8 °C 1021.6 hPa NNW 31.5 km/h 31.5 km/h 72 % 0.0 mm 0.0 W/m2 CLR
23:26 1.7 °C -2.8 °C 1021.6 hPa NNW 29.6 km/h 29.6 km/h 72 % 0.0 mm 0.0 W/m2 CLR
23:32 1.7 °C -2.8 °C 1021.6 hPa NW 40.2 km/h 40.2 km/h 72 % 0.0 mm 0.0 W/m2 CLR
23:37 1.7 °C -2.8 °C 1021.6 hPa North 31.5 km/h 31.5 km/h 72 % 0.0 mm 0.0 W/m2 CLR
23:42 1.7 °C -2.8 °C 1021.6 hPa NNW 31.5 km/h 31.5 km/h 72 % 0.0 mm 0.0 W/m2 CLR
23:47 1.7 °C -2.8 °C 1021.6 hPa NNW 38.9 km/h 38.9 km/h 72 % 0.0 mm 0.0 W/m2 CLR
23:52 1.7 °C -2.8 °C 1021.6 hPa NW 40.7 km/h 40.7 km/h 72 % 0.0 mm 0.0 W/m2 CLR
Lo Temps de Massalio
Compliments of Weather Underground - 1 mb